Weather at Palm Beach Gardens Medical Center Heliport

Public forecast

Using degrees Fahrenheit for public forecast. Weather courtesy of forecast.io.

Closest aviation weather report (METAR) to Palm Beach Gardens Medical Center Heliport

Closest report is North Palm Beach County General Aviation Airport, 7.3 nm (13.6 km) W.

2024/05/30 08:55 (retrieved 6 minutes ago)

KF45 300855Z AUTO 02004KT 7SM SCT027 23/23 A2999 RMK AO2

Closest aviation forecast (TAF) to Palm Beach Gardens Medical Center Heliport

Closest forecast is Palm Beach International Airport, 8.8 nm (16.2 km) S.

2024/05/30 09:45 Ammendment (retrieved 0 seconds ago)

TAF AMD KPBI 300837Z 3009/3106 VRB05KT P6SM SKC FM301700 08010KT P6SM SCT030 SCT250 FM302100 08011KT P6SM VCTS SCT025CB BKN050 FM310100 VRB05KT P6SM SCT030 SCT060